Grays Knob, Kentucky
Current Conditions -  °F | °C
As of 7:15 PM on Saturday 20 Dec 2014 (Local Time) from KI35 Reporting Station
Overcast Overcast  
Wind Chill: 35°   Ceiling: 4100
Heat Index: 39°   Visibility: 10mi
Dew Point: 28°   Wind: 6mph
Humidity: 65%   Direction: 360°N
Pressure: 30.22"   Gusts: NA
Location:  36.81°N, 83.31°W
Report Text: KI35 210015Z AUTO 36005KT 10SM OVC041 04/M02 A3022 RMK AO1
Loading
Personal Weather Stations






























Interactive Weather Map New forecast layout! Learn more

10-Day Weather Forecast

Advertisements
Track Severe Weather on mobile